Des Moines International Airport
KDSM : now visible

Airfield :











YOU CAN JOIN US ON...

 
LOGIN :

Register | Disclaimer

   EN    FR    IT 

 









Legend :    VFR   Marginal VFR   IFR   Intensive IFR   Very Intensive IFR
Visi :
Ceiling :
>= 8 km
>= 3000ft
5 to 8 km
1000 to 3000 ft
1500m to 5 km
500 to 1000 ft
800 to 1500m
200 to 500 ft
< 800m
< 200 ft
Symbols :   Thunderstorms  Fog  Heavy snow  Heavy precipitations  Wind > 20 kt







- Airport Elevation : 958 ft
- IATA code : DSM


KDSM - Des Moines International

CURRENT METAR :
  • 261054Z 15005KT 10SM -RA FEW006 SCT085 BKN100 OVC200 15/13 A3003 RMK AO2 SLP164 P0004 T01500133

EXPIRED METARs :
  • 260954Z 02013KT 10SM -RA FEW075 OVC100 15/13 A2998 RMK AO2 TSE11 SLP145 TS MOV E P0012 T01500133
  • 260911Z 04013KT 6SM RA BR FEW070 OVC090 15/14 A3001 RMK AO2 TSE11 OCNL LTGICCC DSNT N-E TS MOV E CB DSNT N-E MOV E P0005 T01500139
  • 260854Z 05009KT 5SM TSRA BR SCT045 OVC055CB 15/14 A3003 RMK AO2 WSHFT 0756 SLP166 OCNL LTGICCC OHD-N-SE TS OHD-N-SE MOV E P0029 60029 T01500139 51024
  • 260813Z 19012G20KT 5SM TSRA SCT045 BKN055CB OVC085 16/13 A3006 RMK AO2 WSHFT 0756 LTG DSNT E AND SW AND W FRQ LTGICCG ALQDS TS ALQDS MOV E P0003 T01610133

TAF KDSM
Valid from the 26 at 08:00 until the 27 at 06:00 UTC


260819Z 2608/2706 04005KT P6SM VCTS SCT035CB BKN070
TEMPO 2608/2611 VRB15G25KT 4SM -TSRA BKN025CB
FM261200 07007KT P6SM BKN090
KZMP FIR / North America



MET'MAP, your aeronautical weather chart ! - Copyright ORBIFLY December 2007 - Disclaimer

ORBIFLY MET'MAP TEAM :

Programming & Development : Alexandra Zaïnal
Concept & Development : Baudouin d'Aumeries
Co-Development & Prog : Marc-Olivier Méhu
Technical & hardware support : Manuel Goepfert

Contact : metmap@orbifly.com




SOURCES & CREDITS :

   NOAA       Earth
Advisory